sensor_id;sensor_type;location;lat;lon;timestamp;P1;durP1;ratioP1;P2;durP2;ratioP2
19830;SDS011;10076;52.008;4.708;2023-06-22T00:00:54;8.05;;;4.45;;
19830;SDS011;10076;52.008;4.708;2023-06-22T00:03:20;8.55;;;4.53;;
19830;SDS011;10076;52.008;4.708;2023-06-22T00:05:47;9.10;;;4.93;;
19830;SDS011;10076;52.008;4.708;2023-06-22T00:08:13;8.48;;;4.22;;
19830;SDS011;10076;52.008;4.708;2023-06-22T00:10:39;9.02;;;4.40;;
19830;SDS011;10076;52.008;4.708;2023-06-22T00:13:05;8.80;;;4.47;;
19830;SDS011;10076;52.008;4.708;2023-06-22T00:15:31;7.70;;;4.18;;
19830;SDS011;10076;52.008;4.708;2023-06-22T00:17:57;9.45;;;5.05;;
19830;SDS011;10076;52.008;4.708;2023-06-22T00:20:23;11.43;;;4.80;;
19830;SDS011;10076;52.008;4.708;2023-06-22T00:22:52;8.10;;;5.43;;
19830;SDS011;10076;52.008;4.708;2023-06-22T00:25:18;10.13;;;4.35;;
19830;SDS011;10076;52.008;4.708;2023-06-22T00:27:44;7.45;;;4.68;;
19830;SDS011;10076;52.008;4.708;2023-06-22T00:30:09;9.25;;;5.10;;
19830;SDS011;10076;52.008;4.708;2023-06-22T00:32:35;9.32;;;5.03;;
19830;SDS011;10076;52.008;4.708;2023-06-22T00:35:00;11.00;;;4.80;;
19830;SDS011;10076;52.008;4.708;2023-06-22T00:37:25;10.07;;;4.65;;
19830;SDS011;10076;52.008;4.708;2023-06-22T00:39:54;10.25;;;5.07;;
19830;SDS011;10076;52.008;4.708;2023-06-22T00:42:20;10.25;;;4.72;;
19830;SDS011;10076;52.008;4.708;2023-06-22T00:44:45;12.30;;;4.68;;
19830;SDS011;10076;52.008;4.708;2023-06-22T00:47:11;10.63;;;4.88;;
19830;SDS011;10076;52.008;4.708;2023-06-22T00:49:38;9.05;;;4.97;;
19830;SDS011;10076;52.008;4.708;2023-06-22T00:52:04;8.02;;;4.72;;
19830;SDS011;10076;52.008;4.708;2023-06-22T00:54:34;7.60;;;4.38;;
19830;SDS011;10076;52.008;4.708;2023-06-22T00:57:01;10.90;;;5.03;;
19830;SDS011;10076;52.008;4.708;2023-06-22T00:59:27;8.70;;;5.15;;
19830;SDS011;10076;52.008;4.708;2023-06-22T01:01:52;7.93;;;5.25;;
19830;SDS011;10076;52.008;4.708;2023-06-22T01:04:17;10.57;;;5.30;;
19830;SDS011;10076;52.008;4.708;2023-06-22T01:06:50;12.07;;;5.53;;
19830;SDS011;10076;52.008;4.708;2023-06-22T01:09:27;10.18;;;5.50;;
19830;SDS011;10076;52.008;4.708;2023-06-22T01:11:58;10.35;;;4.85;;
19830;SDS011;10076;52.008;4.708;2023-06-22T01:14:35;11.45;;;4.95;;
19830;SDS011;10076;52.008;4.708;2023-06-22T01:17:07;11.68;;;5.50;;
19830;SDS011;10076;52.008;4.708;2023-06-22T01:22:32;12.80;;;5.85;;
19830;SDS011;10076;52.008;4.708;2023-06-22T01:25:08;9.80;;;4.80;;
19830;SDS011;10076;52.008;4.708;2023-06-22T01:27:45;10.85;;;5.90;;
19830;SDS011;10076;52.008;4.708;2023-06-22T01:30:17;12.13;;;6.15;;
19830;SDS011;10076;52.008;4.708;2023-06-22T01:32:44;11.75;;;5.78;;
19830;SDS011;10076;52.008;4.708;2023-06-22T01:35:10;10.65;;;5.25;;
19830;SDS011;10076;52.008;4.708;2023-06-22T01:37:37;12.48;;;6.28;;
19830;SDS011;10076;52.008;4.708;2023-06-22T01:40:04;13.52;;;7.28;;
19830;SDS011;10076;52.008;4.708;2023-06-22T01:42:31;13.13;;;5.55;;
19830;SDS011;10076;52.008;4.708;2023-06-22T01:44:57;11.88;;;6.65;;
19830;SDS011;10076;52.008;4.708;2023-06-22T01:47:24;13.23;;;7.03;;
19830;SDS011;10076;52.008;4.708;2023-06-22T01:49:50;14.85;;;6.50;;
19830;SDS011;10076;52.008;4.708;2023-06-22T01:52:19;12.20;;;6.38;;
19830;SDS011;10076;52.008;4.708;2023-06-22T01:54:46;15.52;;;7.57;;
19830;SDS011;10076;52.008;4.708;2023-06-22T01:57:12;12.35;;;6.90;;
19830;SDS011;10076;52.008;4.708;2023-06-22T01:59:39;14.80;;;7.47;;
19830;SDS011;10076;52.008;4.708;2023-06-22T02:02:33;15.38;;;8.50;;
19830;SDS011;10076;52.008;4.708;2023-06-22T02:05:08;14.20;;;6.63;;
19830;SDS011;10076;52.008;4.708;2023-06-22T02:07:39;15.93;;;7.40;;
19830;SDS011;10076;52.008;4.708;2023-06-22T02:10:17;16.65;;;7.80;;
19830;SDS011;10076;52.008;4.708;2023-06-22T02:12:47;15.40;;;7.82;;
19830;SDS011;10076;52.008;4.708;2023-06-22T02:15:13;16.63;;;7.65;;
19830;SDS011;10076;52.008;4.708;2023-06-22T02:17:39;17.45;;;8.07;;
19830;SDS011;10076;52.008;4.708;2023-06-22T02:20:11;16.85;;;8.02;;
19830;SDS011;10076;52.008;4.708;2023-06-22T02:22:38;17.65;;;8.90;;
19830;SDS011;10076;52.008;4.708;2023-06-22T02:25:03;18.35;;;9.27;;
19830;SDS011;10076;52.008;4.708;2023-06-22T02:27:29;15.50;;;8.43;;
19830;SDS011;10076;52.008;4.708;2023-06-22T02:29:54;16.98;;;8.52;;
19830;SDS011;10076;52.008;4.708;2023-06-22T02:32:19;17.92;;;8.18;;
19830;SDS011;10076;52.008;4.708;2023-06-22T02:34:45;17.17;;;8.95;;
19830;SDS011;10076;52.008;4.708;2023-06-22T02:37:12;19.35;;;8.55;;
19830;SDS011;10076;52.008;4.708;2023-06-22T02:39:41;16.13;;;8.27;;
19830;SDS011;10076;52.008;4.708;2023-06-22T02:42:06;18.45;;;8.23;;
19830;SDS011;10076;52.008;4.708;2023-06-22T02:44:32;14.35;;;7.72;;
19830;SDS011;10076;52.008;4.708;2023-06-22T02:46:57;16.77;;;7.43;;
19830;SDS011;10076;52.008;4.708;2023-06-22T02:49:23;17.02;;;7.43;;
19830;SDS011;10076;52.008;4.708;2023-06-22T02:51:48;17.65;;;8.45;;
19830;SDS011;10076;52.008;4.708;2023-06-22T02:54:14;16.13;;;7.55;;
19830;SDS011;10076;52.008;4.708;2023-06-22T02:56:40;14.13;;;8.00;;
19830;SDS011;10076;52.008;4.708;2023-06-22T02:59:05;16.17;;;7.95;;
19830;SDS011;10076;52.008;4.708;2023-06-22T03:01:31;19.00;;;8.30;;
19830;SDS011;10076;52.008;4.708;2023-06-22T03:04:03;14.63;;;8.02;;
19830;SDS011;10076;52.008;4.708;2023-06-22T03:06:28;16.38;;;7.47;;
19830;SDS011;10076;52.008;4.708;2023-06-22T03:09:00;17.15;;;8.15;;
19830;SDS011;10076;52.008;4.708;2023-06-22T03:11:28;17.70;;;8.07;;
19830;SDS011;10076;52.008;4.708;2023-06-22T03:13:54;17.83;;;7.85;;
19830;SDS011;10076;52.008;4.708;2023-06-22T03:16:19;15.13;;;7.85;;
19830;SDS011;10076;52.008;4.708;2023-06-22T03:18:45;16.60;;;7.75;;
19830;SDS011;10076;52.008;4.708;2023-06-22T03:21:10;16.70;;;8.60;;
19830;SDS011;10076;52.008;4.708;2023-06-22T03:23:35;18.02;;;8.27;;
19830;SDS011;10076;52.008;4.708;2023-06-22T03:26:01;18.55;;;8.50;;
19830;SDS011;10076;52.008;4.708;2023-06-22T03:28:27;19.85;;;9.80;;
19830;SDS011;10076;52.008;4.708;2023-06-22T03:30:52;17.15;;;8.30;;
19830;SDS011;10076;52.008;4.708;2023-06-22T03:33:18;19.77;;;8.82;;
19830;SDS011;10076;52.008;4.708;2023-06-22T03:35:43;22.65;;;9.38;;
19830;SDS011;10076;52.008;4.708;2023-06-22T03:38:09;16.80;;;8.20;;
19830;SDS011;10076;52.008;4.708;2023-06-22T03:40:34;19.20;;;9.40;;
19830;SDS011;10076;52.008;4.708;2023-06-22T03:42:59;18.00;;;9.23;;
19830;SDS011;10076;52.008;4.708;2023-06-22T03:45:25;17.50;;;7.70;;
19830;SDS011;10076;52.008;4.708;2023-06-22T03:47:50;18.08;;;8.48;;
19830;SDS011;10076;52.008;4.708;2023-06-22T03:50:15;18.67;;;8.57;;
19830;SDS011;10076;52.008;4.708;2023-06-22T03:52:41;14.80;;;7.38;;
19830;SDS011;10076;52.008;4.708;2023-06-22T03:55:07;21.45;;;8.40;;
19830;SDS011;10076;52.008;4.708;2023-06-22T03:57:33;15.15;;;8.02;;
19830;SDS011;10076;52.008;4.708;2023-06-22T03:59:58;18.48;;;8.05;;
19830;SDS011;10076;52.008;4.708;2023-06-22T04:02:24;14.32;;;8.00;;
19830;SDS011;10076;52.008;4.708;2023-06-22T04:04:49;16.25;;;7.68;;
19830;SDS011;10076;52.008;4.708;2023-06-22T04:07:15;17.27;;;8.88;;
19830;SDS011;10076;52.008;4.708;2023-06-22T04:09:40;18.88;;;7.88;;
19830;SDS011;10076;52.008;4.708;2023-06-22T04:12:05;14.93;;;7.28;;
19830;SDS011;10076;52.008;4.708;2023-06-22T04:14:31;18.48;;;7.85;;
19830;SDS011;10076;52.008;4.708;2023-06-22T04:16:57;16.33;;;7.68;;
19830;SDS011;10076;52.008;4.708;2023-06-22T04:19:22;15.55;;;7.88;;
19830;SDS011;10076;52.008;4.708;2023-06-22T04:21:48;15.60;;;7.97;;
19830;SDS011;10076;52.008;4.708;2023-06-22T04:24:13;15.18;;;7.70;;
19830;SDS011;10076;52.008;4.708;2023-06-22T04:26:39;13.88;;;7.03;;
19830;SDS011;10076;52.008;4.708;2023-06-22T04:29:06;17.23;;;7.63;;
19830;SDS011;10076;52.008;4.708;2023-06-22T04:31:33;15.05;;;7.55;;
19830;SDS011;10076;52.008;4.708;2023-06-22T04:34:02;15.07;;;7.55;;
19830;SDS011;10076;52.008;4.708;2023-06-22T04:36:38;17.33;;;8.52;;
19830;SDS011;10076;52.008;4.708;2023-06-22T04:39:09;16.92;;;7.95;;
19830;SDS011;10076;52.008;4.708;2023-06-22T04:41:36;15.75;;;7.22;;
19830;SDS011;10076;52.008;4.708;2023-06-22T04:44:11;12.18;;;6.43;;
19830;SDS011;10076;52.008;4.708;2023-06-22T04:46:38;12.50;;;6.60;;
19830;SDS011;10076;52.008;4.708;2023-06-22T04:49:07;16.33;;;7.82;;
19830;SDS011;10076;52.008;4.708;2023-06-22T04:51:39;15.18;;;7.15;;
19830;SDS011;10076;52.008;4.708;2023-06-22T04:54:05;15.15;;;6.95;;
19830;SDS011;10076;52.008;4.708;2023-06-22T04:56:32;12.30;;;6.40;;
19830;SDS011;10076;52.008;4.708;2023-06-22T04:58:57;14.07;;;6.15;;
19830;SDS011;10076;52.008;4.708;2023-06-22T05:01:23;13.57;;;6.25;;
19830;SDS011;10076;52.008;4.708;2023-06-22T05:03:48;13.13;;;6.32;;
19830;SDS011;10076;52.008;4.708;2023-06-22T05:06:14;12.00;;;6.18;;
19830;SDS011;10076;52.008;4.708;2023-06-22T05:08:40;10.38;;;5.65;;
19830;SDS011;10076;52.008;4.708;2023-06-22T05:11:05;10.77;;;5.97;;
19830;SDS011;10076;52.008;4.708;2023-06-22T05:13:31;11.95;;;6.57;;
19830;SDS011;10076;52.008;4.708;2023-06-22T05:15:57;12.35;;;6.60;;
19830;SDS011;10076;52.008;4.708;2023-06-22T05:18:35;9.75;;;5.68;;
19830;SDS011;10076;52.008;4.708;2023-06-22T05:21:01;11.57;;;6.43;;
19830;SDS011;10076;52.008;4.708;2023-06-22T05:23:26;10.75;;;6.15;;
19830;SDS011;10076;52.008;4.708;2023-06-22T05:25:51;12.25;;;6.65;;
19830;SDS011;10076;52.008;4.708;2023-06-22T05:28:17;10.52;;;5.43;;
19830;SDS011;10076;52.008;4.708;2023-06-22T05:30:47;10.75;;;5.63;;
19830;SDS011;10076;52.008;4.708;2023-06-22T05:33:13;10.95;;;6.18;;
19830;SDS011;10076;52.008;4.708;2023-06-22T05:35:38;11.90;;;6.40;;
19830;SDS011;10076;52.008;4.708;2023-06-22T05:38:03;11.80;;;6.13;;
19830;SDS011;10076;52.008;4.708;2023-06-22T05:40:29;9.55;;;5.43;;
19830;SDS011;10076;52.008;4.708;2023-06-22T05:42:54;10.65;;;5.82;;
19830;SDS011;10076;52.008;4.708;2023-06-22T05:45:19;10.43;;;5.78;;
19830;SDS011;10076;52.008;4.708;2023-06-22T05:47:44;13.88;;;5.88;;
19830;SDS011;10076;52.008;4.708;2023-06-22T05:50:10;11.07;;;6.00;;
19830;SDS011;10076;52.008;4.708;2023-06-22T05:52:35;14.77;;;6.68;;
19830;SDS011;10076;52.008;4.708;2023-06-22T05:55:01;11.02;;;5.47;;
19830;SDS011;10076;52.008;4.708;2023-06-22T05:57:27;9.05;;;5.60;;
19830;SDS011;10076;52.008;4.708;2023-06-22T05:59:52;10.57;;;6.35;;
19830;SDS011;10076;52.008;4.708;2023-06-22T06:02:18;12.15;;;5.72;;
19830;SDS011;10076;52.008;4.708;2023-06-22T06:04:44;10.38;;;5.68;;
19830;SDS011;10076;52.008;4.708;2023-06-22T06:07:09;13.05;;;6.75;;
19830;SDS011;10076;52.008;4.708;2023-06-22T06:09:35;12.27;;;6.50;;
19830;SDS011;10076;52.008;4.708;2023-06-22T06:12:00;11.05;;;5.75;;
19830;SDS011;10076;52.008;4.708;2023-06-22T06:14:27;12.88;;;6.90;;
19830;SDS011;10076;52.008;4.708;2023-06-22T06:16:53;13.63;;;7.65;;
19830;SDS011;10076;52.008;4.708;2023-06-22T06:19:18;11.13;;;6.43;;
19830;SDS011;10076;52.008;4.708;2023-06-22T06:21:43;10.10;;;5.93;;
19830;SDS011;10076;52.008;4.708;2023-06-22T06:24:09;11.32;;;6.40;;
19830;SDS011;10076;52.008;4.708;2023-06-22T06:26:34;11.20;;;5.93;;
19830;SDS011;10076;52.008;4.708;2023-06-22T06:29:00;16.00;;;7.22;;
19830;SDS011;10076;52.008;4.708;2023-06-22T06:31:27;13.52;;;6.15;;
19830;SDS011;10076;52.008;4.708;2023-06-22T06:33:53;10.70;;;5.80;;
19830;SDS011;10076;52.008;4.708;2023-06-22T06:36:19;15.10;;;6.88;;
19830;SDS011;10076;52.008;4.708;2023-06-22T06:38:44;10.77;;;6.20;;
19830;SDS011;10076;52.008;4.708;2023-06-22T06:41:12;10.35;;;6.38;;
19830;SDS011;10076;52.008;4.708;2023-06-22T06:43:38;10.63;;;6.15;;
19830;SDS011;10076;52.008;4.708;2023-06-22T06:46:03;10.48;;;6.38;;
19830;SDS011;10076;52.008;4.708;2023-06-22T06:48:29;9.55;;;6.07;;
19830;SDS011;10076;52.008;4.708;2023-06-22T06:50:54;11.35;;;6.43;;
19830;SDS011;10076;52.008;4.708;2023-06-22T06:53:19;10.75;;;6.07;;
19830;SDS011;10076;52.008;4.708;2023-06-22T06:55:45;10.40;;;5.82;;
19830;SDS011;10076;52.008;4.708;2023-06-22T06:58:10;8.93;;;5.60;;
19830;SDS011;10076;52.008;4.708;2023-06-22T07:00:38;10.93;;;5.82;;
19830;SDS011;10076;52.008;4.708;2023-06-22T07:03:04;10.15;;;6.13;;
19830;SDS011;10076;52.008;4.708;2023-06-22T07:05:29;10.85;;;6.43;;
19830;SDS011;10076;52.008;4.708;2023-06-22T07:07:55;13.60;;;5.50;;
19830;SDS011;10076;52.008;4.708;2023-06-22T07:10:20;10.90;;;5.70;;
19830;SDS011;10076;52.008;4.708;2023-06-22T07:12:46;10.20;;;5.45;;
19830;SDS011;10076;52.008;4.708;2023-06-22T07:15:11;10.15;;;5.47;;
19830;SDS011;10076;52.008;4.708;2023-06-22T07:17:37;8.35;;;4.78;;
19830;SDS011;10076;52.008;4.708;2023-06-22T07:20:05;8.75;;;4.75;;
19830;SDS011;10076;52.008;4.708;2023-06-22T07:22:35;8.43;;;5.00;;
19830;SDS011;10076;52.008;4.708;2023-06-22T07:25:01;6.60;;;4.45;;
19830;SDS011;10076;52.008;4.708;2023-06-22T07:27:29;7.07;;;4.40;;
19830;SDS011;10076;52.008;4.708;2023-06-22T07:30:00;8.57;;;4.38;;
19830;SDS011;10076;52.008;4.708;2023-06-22T07:32:25;9.23;;;4.47;;
19830;SDS011;10076;52.008;4.708;2023-06-22T07:34:50;10.68;;;5.38;;
19830;SDS011;10076;52.008;4.708;2023-06-22T07:37:16;11.95;;;5.82;;
19830;SDS011;10076;52.008;4.708;2023-06-22T07:39:41;9.93;;;5.80;;
19830;SDS011;10076;52.008;4.708;2023-06-22T07:42:07;11.63;;;6.22;;
19830;SDS011;10076;52.008;4.708;2023-06-22T07:44:32;8.95;;;6.32;;
19830;SDS011;10076;52.008;4.708;2023-06-22T07:46:58;10.38;;;6.35;;
19830;SDS011;10076;52.008;4.708;2023-06-22T07:49:23;11.82;;;6.68;;
19830;SDS011;10076;52.008;4.708;2023-06-22T07:51:48;13.25;;;6.80;;
19830;SDS011;10076;52.008;4.708;2023-06-22T07:54:14;10.93;;;6.50;;
19830;SDS011;10076;52.008;4.708;2023-06-22T07:56:40;11.18;;;6.25;;
19830;SDS011;10076;52.008;4.708;2023-06-22T07:59:06;12.45;;;6.50;;
19830;SDS011;10076;52.008;4.708;2023-06-22T08:01:31;10.27;;;6.55;;
19830;SDS011;10076;52.008;4.708;2023-06-22T08:03:56;9.77;;;5.97;;
19830;SDS011;10076;52.008;4.708;2023-06-22T08:06:22;12.55;;;6.55;;
19830;SDS011;10076;52.008;4.708;2023-06-22T08:08:47;13.95;;;7.40;;
19830;SDS011;10076;52.008;4.708;2023-06-22T08:11:13;11.25;;;6.80;;
19830;SDS011;10076;52.008;4.708;2023-06-22T08:13:39;11.43;;;6.55;;
19830;SDS011;10076;52.008;4.708;2023-06-22T08:16:04;10.48;;;7.47;;
19830;SDS011;10076;52.008;4.708;2023-06-22T08:18:30;13.95;;;8.60;;
19830;SDS011;10076;52.008;4.708;2023-06-22T08:20:55;13.50;;;7.93;;
19830;SDS011;10076;52.008;4.708;2023-06-22T08:23:20;17.33;;;9.27;;
19830;SDS011;10076;52.008;4.708;2023-06-22T08:25:46;17.05;;;10.05;;
19830;SDS011;10076;52.008;4.708;2023-06-22T08:28:13;14.57;;;9.57;;
19830;SDS011;10076;52.008;4.708;2023-06-22T08:30:38;16.02;;;9.65;;
19830;SDS011;10076;52.008;4.708;2023-06-22T08:33:04;13.90;;;9.00;;
19830;SDS011;10076;52.008;4.708;2023-06-22T08:35:29;13.98;;;8.57;;
19830;SDS011;10076;52.008;4.708;2023-06-22T08:37:55;14.63;;;9.85;;
19830;SDS011;10076;52.008;4.708;2023-06-22T08:40:22;17.63;;;10.38;;
19830;SDS011;10076;52.008;4.708;2023-06-22T08:42:47;14.98;;;9.13;;
19830;SDS011;10076;52.008;4.708;2023-06-22T08:45:14;15.20;;;9.35;;
19830;SDS011;10076;52.008;4.708;2023-06-22T08:47:40;15.73;;;10.18;;
19830;SDS011;10076;52.008;4.708;2023-06-22T08:50:09;15.48;;;8.77;;
19830;SDS011;10076;52.008;4.708;2023-06-22T08:52:35;9.50;;;7.80;;
19830;SDS011;10076;52.008;4.708;2023-06-22T08:55:01;12.00;;;8.30;;
19830;SDS011;10076;52.008;4.708;2023-06-22T08:57:27;13.68;;;8.90;;
19830;SDS011;10076;52.008;4.708;2023-06-22T08:59:53;12.52;;;8.25;;
19830;SDS011;10076;52.008;4.708;2023-06-22T09:02:18;13.75;;;8.45;;
19830;SDS011;10076;52.008;4.708;2023-06-22T09:04:45;14.02;;;8.52;;
19830;SDS011;10076;52.008;4.708;2023-06-22T09:07:11;11.90;;;7.57;;
19830;SDS011;10076;52.008;4.708;2023-06-22T09:09:36;13.05;;;7.07;;
19830;SDS011;10076;52.008;4.708;2023-06-22T09:12:02;12.35;;;6.85;;
19830;SDS011;10076;52.008;4.708;2023-06-22T09:14:27;11.02;;;7.07;;
19830;SDS011;10076;52.008;4.708;2023-06-22T09:16:52;11.45;;;7.40;;
19830;SDS011;10076;52.008;4.708;2023-06-22T09:19:18;10.57;;;6.28;;
19830;SDS011;10076;52.008;4.708;2023-06-22T09:21:43;12.02;;;7.00;;
19830;SDS011;10076;52.008;4.708;2023-06-22T09:24:08;8.90;;;6.55;;
19830;SDS011;10076;52.008;4.708;2023-06-22T09:26:34;11.05;;;6.07;;
19830;SDS011;10076;52.008;4.708;2023-06-22T09:28:59;8.98;;;6.10;;
19830;SDS011;10076;52.008;4.708;2023-06-22T09:31:24;8.70;;;6.28;;
19830;SDS011;10076;52.008;4.708;2023-06-22T09:33:54;9.25;;;5.80;;
19830;SDS011;10076;52.008;4.708;2023-06-22T09:36:20;8.95;;;6.35;;
19830;SDS011;10076;52.008;4.708;2023-06-22T09:38:47;10.15;;;6.30;;
19830;SDS011;10076;52.008;4.708;2023-06-22T09:41:13;10.93;;;5.88;;
19830;SDS011;10076;52.008;4.708;2023-06-22T09:43:38;8.07;;;5.50;;
19830;SDS011;10076;52.008;4.708;2023-06-22T09:46:04;7.43;;;5.88;;
19830;SDS011;10076;52.008;4.708;2023-06-22T09:48:29;8.63;;;6.38;;
19830;SDS011;10076;52.008;4.708;2023-06-22T09:50:55;7.80;;;5.47;;
19830;SDS011;10076;52.008;4.708;2023-06-22T09:53:21;9.40;;;5.72;;
19830;SDS011;10076;52.008;4.708;2023-06-22T09:55:46;8.20;;;5.50;;
19830;SDS011;10076;52.008;4.708;2023-06-22T09:58:12;7.95;;;5.57;;
19830;SDS011;10076;52.008;4.708;2023-06-22T10:00:37;8.00;;;6.18;;
19830;SDS011;10076;52.008;4.708;2023-06-22T10:03:02;7.53;;;5.50;;
19830;SDS011;10076;52.008;4.708;2023-06-22T10:05:28;10.75;;;6.32;;
19830;SDS011;10076;52.008;4.708;2023-06-22T10:07:53;12.48;;;6.95;;
19830;SDS011;10076;52.008;4.708;2023-06-22T10:10:18;10.10;;;5.93;;
19830;SDS011;10076;52.008;4.708;2023-06-22T10:12:48;9.00;;;5.55;;
19830;SDS011;10076;52.008;4.708;2023-06-22T10:15:20;8.20;;;5.57;;
19830;SDS011;10076;52.008;4.708;2023-06-22T10:17:46;7.80;;;5.68;;
19830;SDS011;10076;52.008;4.708;2023-06-22T10:20:12;5.70;;;4.93;;
19830;SDS011;10076;52.008;4.708;2023-06-22T10:22:41;8.15;;;6.03;;
19830;SDS011;10076;52.008;4.708;2023-06-22T10:25:07;8.25;;;5.93;;
19830;SDS011;10076;52.008;4.708;2023-06-22T10:27:33;7.85;;;5.40;;
19830;SDS011;10076;52.008;4.708;2023-06-22T10:29:59;7.97;;;5.50;;
19830;SDS011;10076;52.008;4.708;2023-06-22T10:32:24;7.15;;;4.70;;
19830;SDS011;10076;52.008;4.708;2023-06-22T10:34:49;8.85;;;5.38;;
19830;SDS011;10076;52.008;4.708;2023-06-22T10:37:15;9.60;;;5.53;;
19830;SDS011;10076;52.008;4.708;2023-06-22T10:39:40;6.25;;;5.50;;
19830;SDS011;10076;52.008;4.708;2023-06-22T10:42:06;8.85;;;6.10;;
19830;SDS011;10076;52.008;4.708;2023-06-22T10:44:31;10.88;;;6.63;;
19830;SDS011;10076;52.008;4.708;2023-06-22T10:46:57;12.20;;;7.22;;
19830;SDS011;10076;52.008;4.708;2023-06-22T10:49:22;10.38;;;7.88;;
19830;SDS011;10076;52.008;4.708;2023-06-22T10:51:47;11.40;;;7.10;;
19830;SDS011;10076;52.008;4.708;2023-06-22T10:54:12;11.10;;;8.15;;
19830;SDS011;10076;52.008;4.708;2023-06-22T10:56:39;10.27;;;7.45;;
19830;SDS011;10076;52.008;4.708;2023-06-22T10:59:05;11.38;;;7.68;;
19830;SDS011;10076;52.008;4.708;2023-06-22T11:01:30;12.02;;;8.07;;
19830;SDS011;10076;52.008;4.708;2023-06-22T11:03:56;12.05;;;8.80;;
19830;SDS011;10076;52.008;4.708;2023-06-22T11:06:22;12.45;;;8.75;;
19830;SDS011;10076;52.008;4.708;2023-06-22T11:08:47;12.90;;;7.95;;
19830;SDS011;10076;52.008;4.708;2023-06-22T11:11:12;14.48;;;8.65;;
19830;SDS011;10076;52.008;4.708;2023-06-22T11:13:38;12.20;;;8.45;;
19830;SDS011;10076;52.008;4.708;2023-06-22T11:16:03;11.50;;;7.82;;
19830;SDS011;10076;52.008;4.708;2023-06-22T11:18:28;11.00;;;7.68;;
19830;SDS011;10076;52.008;4.708;2023-06-22T11:20:54;10.40;;;7.40;;
19830;SDS011;10076;52.008;4.708;2023-06-22T11:23:19;11.70;;;7.93;;
19830;SDS011;10076;52.008;4.708;2023-06-22T11:25:44;11.48;;;7.82;;
19830;SDS011;10076;52.008;4.708;2023-06-22T11:28:11;11.18;;;7.38;;
19830;SDS011;10076;52.008;4.708;2023-06-22T11:30:36;11.88;;;7.05;;
19830;SDS011;10076;52.008;4.708;2023-06-22T11:33:02;11.43;;;6.63;;
19830;SDS011;10076;52.008;4.708;2023-06-22T11:35:27;12.25;;;7.18;;
19830;SDS011;10076;52.008;4.708;2023-06-22T11:37:52;14.00;;;7.90;;
19830;SDS011;10076;52.008;4.708;2023-06-22T11:40:17;12.27;;;7.90;;
19830;SDS011;10076;52.008;4.708;2023-06-22T11:42:43;13.02;;;8.10;;
19830;SDS011;10076;52.008;4.708;2023-06-22T11:45:08;15.57;;;9.85;;
19830;SDS011;10076;52.008;4.708;2023-06-22T11:47:34;15.75;;;10.07;;
19830;SDS011;10076;52.008;4.708;2023-06-22T11:49:59;15.30;;;9.23;;
19830;SDS011;10076;52.008;4.708;2023-06-22T11:52:25;15.23;;;9.05;;
19830;SDS011;10076;52.008;4.708;2023-06-22T11:54:52;14.68;;;9.75;;
19830;SDS011;10076;52.008;4.708;2023-06-22T11:57:17;15.23;;;10.10;;
19830;SDS011;10076;52.008;4.708;2023-06-22T11:59:42;20.33;;;10.63;;
19830;SDS011;10076;52.008;4.708;2023-06-22T12:02:08;18.33;;;10.23;;
19830;SDS011;10076;52.008;4.708;2023-06-22T12:04:34;15.27;;;9.98;;
19830;SDS011;10076;52.008;4.708;2023-06-22T12:07:00;17.20;;;10.13;;
19830;SDS011;10076;52.008;4.708;2023-06-22T12:09:25;14.43;;;9.23;;
19830;SDS011;10076;52.008;4.708;2023-06-22T12:11:50;17.58;;;10.50;;
19830;SDS011;10076;52.008;4.708;2023-06-22T12:14:16;17.95;;;10.65;;
19830;SDS011;10076;52.008;4.708;2023-06-22T12:16:41;17.35;;;10.77;;
19830;SDS011;10076;52.008;4.708;2023-06-22T12:19:08;16.85;;;10.07;;
19830;SDS011;10076;52.008;4.708;2023-06-22T12:21:34;18.23;;;11.25;;
19830;SDS011;10076;52.008;4.708;2023-06-22T12:23:59;19.33;;;11.85;;
19830;SDS011;10076;52.008;4.708;2023-06-22T12:26:24;17.25;;;10.77;;
19830;SDS011;10076;52.008;4.708;2023-06-22T12:28:50;17.17;;;9.82;;
19830;SDS011;10076;52.008;4.708;2023-06-22T12:31:15;17.70;;;10.98;;
19830;SDS011;10076;52.008;4.708;2023-06-22T12:33:40;18.60;;;11.38;;
19830;SDS011;10076;52.008;4.708;2023-06-22T12:36:06;18.73;;;11.75;;
19830;SDS011;10076;52.008;4.708;2023-06-22T12:38:32;16.65;;;10.75;;
19830;SDS011;10076;52.008;4.708;2023-06-22T12:40:57;22.27;;;12.43;;
19830;SDS011;10076;52.008;4.708;2023-06-22T12:43:22;21.33;;;11.60;;
19830;SDS011;10076;52.008;4.708;2023-06-22T12:45:47;16.27;;;10.65;;
19830;SDS011;10076;52.008;4.708;2023-06-22T12:48:13;21.25;;;11.27;;
19830;SDS011;10076;52.008;4.708;2023-06-22T12:50:38;17.20;;;10.98;;
19830;SDS011;10076;52.008;4.708;2023-06-22T12:53:04;17.67;;;10.98;;
19830;SDS011;10076;52.008;4.708;2023-06-22T12:55:31;20.77;;;11.00;;
19830;SDS011;10076;52.008;4.708;2023-06-22T12:57:56;17.67;;;10.52;;
19830;SDS011;10076;52.008;4.708;2023-06-22T13:00:22;17.40;;;11.80;;
19830;SDS011;10076;52.008;4.708;2023-06-22T13:02:47;19.00;;;10.65;;
19830;SDS011;10076;52.008;4.708;2023-06-22T13:05:12;17.20;;;10.15;;
19830;SDS011;10076;52.008;4.708;2023-06-22T13:07:38;20.38;;;12.05;;
19830;SDS011;10076;52.008;4.708;2023-06-22T13:10:03;20.60;;;11.90;;
19830;SDS011;10076;52.008;4.708;2023-06-22T13:12:29;18.63;;;11.15;;
19830;SDS011;10076;52.008;4.708;2023-06-22T13:14:54;17.75;;;12.10;;
19830;SDS011;10076;52.008;4.708;2023-06-22T13:17:20;17.70;;;11.00;;
19830;SDS011;10076;52.008;4.708;2023-06-22T13:19:46;16.40;;;10.23;;
19830;SDS011;10076;52.008;4.708;2023-06-22T13:22:30;18.15;;;11.70;;
19830;SDS011;10076;52.008;4.708;2023-06-22T13:24:56;18.27;;;11.10;;
19830;SDS011;10076;52.008;4.708;2023-06-22T13:27:23;18.88;;;10.80;;
19830;SDS011;10076;52.008;4.708;2023-06-22T13:29:48;18.27;;;10.98;;
19830;SDS011;10076;52.008;4.708;2023-06-22T13:32:14;18.35;;;11.25;;
19830;SDS011;10076;52.008;4.708;2023-06-22T13:34:39;18.95;;;11.27;;
19830;SDS011;10076;52.008;4.708;2023-06-22T13:37:04;19.85;;;11.02;;
19830;SDS011;10076;52.008;4.708;2023-06-22T13:39:30;17.38;;;11.18;;
19830;SDS011;10076;52.008;4.708;2023-06-22T13:41:56;20.65;;;11.82;;
19830;SDS011;10076;52.008;4.708;2023-06-22T13:44:21;28.80;;;15.05;;
19830;SDS011;10076;52.008;4.708;2023-06-22T13:46:47;18.85;;;11.68;;
19830;SDS011;10076;52.008;4.708;2023-06-22T13:49:12;20.27;;;12.18;;
19830;SDS011;10076;52.008;4.708;2023-06-22T13:51:38;20.33;;;12.52;;
19830;SDS011;10076;52.008;4.708;2023-06-22T13:54:03;19.90;;;11.65;;
19830;SDS011;10076;52.008;4.708;2023-06-22T13:56:28;17.08;;;10.25;;
19830;SDS011;10076;52.008;4.708;2023-06-22T13:58:54;19.95;;;11.65;;
19830;SDS011;10076;52.008;4.708;2023-06-22T14:01:19;17.90;;;10.63;;
19830;SDS011;10076;52.008;4.708;2023-06-22T14:03:44;16.42;;;9.93;;
19830;SDS011;10076;52.008;4.708;2023-06-22T14:06:11;15.73;;;9.38;;
19830;SDS011;10076;52.008;4.708;2023-06-22T14:08:37;14.23;;;8.55;;
19830;SDS011;10076;52.008;4.708;2023-06-22T14:11:02;13.13;;;8.18;;
19830;SDS011;10076;52.008;4.708;2023-06-22T14:13:28;16.60;;;7.85;;
19830;SDS011;10076;52.008;4.708;2023-06-22T14:15:53;12.35;;;7.72;;
19830;SDS011;10076;52.008;4.708;2023-06-22T14:18:19;15.98;;;7.60;;
19830;SDS011;10076;52.008;4.708;2023-06-22T14:20:47;13.45;;;8.02;;
19830;SDS011;10076;52.008;4.708;2023-06-22T14:23:12;11.25;;;7.13;;
19830;SDS011;10076;52.008;4.708;2023-06-22T14:25:38;11.82;;;6.97;;
19830;SDS011;10076;52.008;4.708;2023-06-22T14:28:04;8.73;;;6.43;;
19830;SDS011;10076;52.008;4.708;2023-06-22T14:30:29;10.15;;;6.15;;
19830;SDS011;10076;52.008;4.708;2023-06-22T14:32:55;10.80;;;5.75;;